PILOTS ONLINE: 636    ATC ONLINE: 151

KLTS - Altus Air Force Base

Location

City Altus
Country  United States
Latitude 34° 40' 1" N
Longitude 99° 16' 0" W
Elevation 1382 ft
Type Large Airport

Runways

17/35 3501 ft / 94 ft
174/354 3501 ft / 94 ft
17L/35R 9000 ft / 150 ft
17R/35L 13440 ft / 150 ft

Weather

METAR
2014/07/25 18:58
KLTS 251858Z AUTO 21014G20KT 10SM CLR 37/18 A2994 RMK AO2 SLP120 T03660175 $
TAF
2014/07/25 17:09
TAF KLTS 2517/2623 20012G18KT 9999 SKC QNH2985INS 
      BECMG 2601/2602 18010KT 9999 SKC QNH2985INS 
      BECMG 2615/2616 18012G18KT 9999 SKC QNH2986INS TX40/2521Z TN23/2612Z

Outbound flights

Inbound flights